createdAt,value
2022-12-26T00:02:29.855Z,101472.34
2022-12-26T00:07:32.608Z,101455.72
2022-12-26T00:12:35.656Z,101465.28
2022-12-26T00:17:38.470Z,101472.06
2022-12-26T00:22:41.121Z,101476.47
2022-12-26T00:27:44.093Z,101475.00
2022-12-26T00:32:47.124Z,101463.81
2022-12-26T00:37:49.888Z,101480.69
2022-12-26T00:42:54.502Z,101483.19
2022-12-26T00:47:57.147Z,101496.84
2022-12-26T00:52:59.844Z,101503.91
2022-12-26T00:58:02.672Z,101493.06
2022-12-26T01:03:08.379Z,101501.00
2022-12-26T01:08:21.492Z,101488.09
2022-12-26T01:13:27.011Z,101487.19
2022-12-26T01:18:30.003Z,101483.22
2022-12-26T01:23:32.652Z,101486.50
2022-12-26T01:28:35.413Z,101484.56
2022-12-26T01:33:38.331Z,101487.06
2022-12-26T01:38:41.042Z,101495.59
2022-12-26T01:43:49.438Z,101496.16
2022-12-26T01:48:53.949Z,101491.47
2022-12-26T01:54:39.811Z,101483.38
2022-12-26T01:59:25.570Z,101468.22
2022-12-26T02:04:50.603Z,101474.69
2022-12-26T02:09:53.566Z,101479.69
2022-12-26T02:14:58.083Z,101502.06
2022-12-26T02:20:10.657Z,101496.75
2022-12-26T02:25:40.661Z,101499.41
2022-12-26T02:31:06.145Z,101507.94
2022-12-26T02:36:15.023Z,101507.50
2022-12-26T02:41:17.643Z,101507.63
2022-12-26T02:46:44.770Z,101509.41
2022-12-26T02:52:24.892Z,101499.00
2022-12-26T02:58:01.444Z,101504.72
2022-12-26T03:03:41.431Z,101513.22
2022-12-26T03:09:06.014Z,101511.16
2022-12-26T03:14:19.706Z,101505.28
2022-12-26T03:19:24.293Z,101463.22
2022-12-26T03:24:47.308Z,101502.38
2022-12-26T03:30:08.338Z,101505.91
2022-12-26T03:35:15.058Z,101511.47
2022-12-26T03:40:43.615Z,101506.63
2022-12-26T03:46:13.759Z,101507.22
2022-12-26T03:51:51.268Z,101514.16
2022-12-26T03:57:15.617Z,101503.16
2022-12-26T04:02:40.470Z,101495.34
2022-12-26T04:08:05.857Z,101507.84
2022-12-26T04:13:35.018Z,101508.44
2022-12-26T04:19:09.329Z,101508.88
2022-12-26T04:24:36.884Z,101512.41
2022-12-26T04:29:58.362Z,101514.75
2022-12-26T04:35:45.739Z,101506.84
2022-12-26T04:41:10.672Z,101505.69
2022-12-26T04:46:14.301Z,101509.50
2022-12-26T04:51:17.016Z,101509.22
2022-12-26T04:56:19.671Z,101510.38
2022-12-26T05:01:40.695Z,101513.91
2022-12-26T05:07:02.114Z,101499.50
2022-12-26T05:12:08.778Z,101509.94
2022-12-26T05:17:32.229Z,101511.41
2022-12-26T05:22:55.209Z,101511.84
2022-12-26T05:28:16.441Z,101522.44
2022-12-26T05:33:37.394Z,101511.56
2022-12-26T05:38:39.992Z,101513.00
2022-12-26T05:43:42.625Z,101514.19
2022-12-26T05:48:45.440Z,101510.50
2022-12-26T05:53:48.845Z,101505.94
2022-12-26T05:58:56.230Z,101526.38
2022-12-26T06:04:00.298Z,101527.13
2022-12-26T06:09:03.162Z,101514.31
2022-12-26T06:14:05.820Z,101523.84
2022-12-26T06:19:08.749Z,101532.38
2022-12-26T06:24:11.449Z,101521.09
2022-12-26T06:29:14.176Z,101530.06
2022-12-26T06:34:18.678Z,101531.81
2022-12-26T06:39:21.616Z,101527.25
2022-12-26T06:44:24.309Z,101533.56
2022-12-26T06:49:32.435Z,101532.97
2022-12-26T06:54:35.747Z,101531.78
2022-12-26T06:59:38.425Z,101540.91
2022-12-26T07:04:41.334Z,101542.38
2022-12-26T07:09:43.994Z,101532.81
2022-12-26T07:14:47.059Z,101529.16
2022-12-26T07:19:49.790Z,101530.03
2022-12-26T07:24:52.420Z,101506.50
2022-12-26T07:29:55.109Z,101531.22
2022-12-26T07:34:57.815Z,101538.13
2022-12-26T07:40:00.443Z,101533.13
2022-12-26T07:45:03.163Z,101544.28
2022-12-26T07:50:06.597Z,101557.28
2022-12-26T07:55:09.798Z,101565.94
2022-12-26T08:00:12.872Z,101565.81
2022-12-26T08:05:16.422Z,101559.31
2022-12-26T08:10:19.281Z,101567.13
2022-12-26T08:15:22.028Z,101575.38
2022-12-26T08:20:24.969Z,101570.22
2022-12-26T08:25:28.130Z,101577.72
2022-12-26T08:30:30.823Z,101576.25
2022-12-26T08:35:37.671Z,101584.91
2022-12-26T08:40:44.318Z,101576.97
2022-12-26T08:45:47.551Z,101569.78
2022-12-26T08:50:56.354Z,101574.78
2022-12-26T08:56:00.111Z,101574.03
2022-12-26T09:01:20.509Z,101579.47
2022-12-26T09:06:23.777Z,101573.00
2022-12-26T09:11:27.355Z,101569.44
2022-12-26T09:16:37.501Z,101579.63
2022-12-26T09:21:41.662Z,101580.06
2022-12-26T09:26:44.847Z,101582.28
2022-12-26T09:31:47.488Z,101578.59
2022-12-26T09:36:50.137Z,101571.53
2022-12-26T09:42:18.718Z,101591.97
2022-12-26T09:47:30.207Z,101608.03
2022-12-26T09:52:55.254Z,101603.78
2022-12-26T09:58:01.815Z,101599.22
2022-12-26T10:03:05.114Z,101617.47
2022-12-26T10:08:26.561Z,101609.25
2022-12-26T10:13:38.423Z,101609.25
2022-12-26T10:19:02.827Z,101611.31
2022-12-26T10:24:14.405Z,101623.81
2022-12-26T10:29:29.382Z,101617.19
2022-12-26T10:34:40.809Z,101630.31
2022-12-26T10:39:49.556Z,101641.03
2022-12-26T10:44:52.226Z,101631.91
2022-12-26T10:49:55.201Z,101627.19
2022-12-26T10:55:28.627Z,101637.06
2022-12-26T11:00:25.122Z,101635.44
2022-12-26T11:05:48.969Z,101645.75
2022-12-26T11:11:14.217Z,101648.38
2022-12-26T11:16:26.406Z,101643.84
2022-12-26T11:21:30.621Z,101642.22
2022-12-26T11:26:33.301Z,101636.00
2022-12-26T11:31:36.445Z,101638.84
2022-12-26T11:36:40.986Z,101642.50
2022-12-26T11:41:46.797Z,101629.25
2022-12-26T11:47:15.552Z,101623.94
2022-12-26T11:52:47.632Z,101635.56
2022-12-26T11:58:06.962Z,101641.31
2022-12-26T12:03:17.047Z,101643.22
2022-12-26T12:08:25.400Z,101639.25
2022-12-26T12:14:11.046Z,101603.91
2022-12-26T12:19:13.922Z,101629.69
2022-12-26T12:24:29.469Z,101636.31
2022-12-26T12:29:57.854Z,101645.09
2022-12-26T12:35:23.102Z,101635.69
2022-12-26T12:40:34.487Z,101630.09
2022-12-26T12:46:07.899Z,101617.16
2022-12-26T12:51:29.218Z,101626.25
2022-12-26T12:56:41.996Z,101631.56
2022-12-26T13:01:48.155Z,101629.03
2022-12-26T13:06:57.608Z,101633.25
2022-12-26T13:12:06.960Z,101652.66
2022-12-26T13:17:22.134Z,101662.63
2022-12-26T13:22:50.815Z,101662.94
2022-12-26T13:27:55.590Z,101652.31
2022-12-26T13:32:58.238Z,101662.28
2022-12-26T13:38:01.141Z,101667.69
2022-12-26T13:43:33.043Z,101657.41
2022-12-26T13:48:38.700Z,101652.25
2022-12-26T13:53:42.415Z,101656.00
2022-12-26T13:58:54.437Z,101665.06
2022-12-26T14:04:09.622Z,101677.03
2022-12-26T14:09:24.218Z,101678.81
2022-12-26T14:15:06.145Z,101672.66
2022-12-26T14:20:17.290Z,101682.66
2022-12-26T14:25:24.813Z,101671.75
2022-12-26T14:31:03.264Z,101673.53
2022-12-26T14:36:06.098Z,101676.75
2022-12-26T14:41:34.809Z,101684.22
2022-12-26T14:46:39.117Z,101680.03
2022-12-26T14:51:41.984Z,101676.22
2022-12-26T14:56:44.888Z,101642.66
2022-12-26T15:01:50.131Z,101669.88
2022-12-26T15:07:05.010Z,101671.56
2022-12-26T15:12:19.556Z,101675.00
2022-12-26T15:17:34.198Z,101670.63
2022-12-26T15:23:04.452Z,101665.91
2022-12-26T15:28:28.783Z,101672.31
2022-12-26T15:33:41.447Z,101678.09
2022-12-26T15:38:56.102Z,101669.59
2022-12-26T15:44:20.397Z,101664.66
2022-12-26T15:49:43.269Z,101674.13
2022-12-26T15:55:11.123Z,101656.94
2022-12-26T16:00:26.371Z,101657.69
2022-12-26T16:05:33.095Z,101634.13
2022-12-26T16:10:36.726Z,101662.91
2022-12-26T16:15:48.807Z,101678.22
2022-12-26T16:21:11.287Z,101688.34
2022-12-26T16:26:25.553Z,101687.09
2022-12-26T16:31:31.461Z,101683.72
2022-12-26T16:36:36.916Z,101689.59
2022-12-26T16:41:57.997Z,101686.78
2022-12-26T16:47:13.544Z,101665.84
2022-12-26T16:52:45.827Z,101671.13
2022-12-26T16:57:51.409Z,101681.47
2022-12-26T17:02:56.887Z,101668.53
2022-12-26T17:08:04.227Z,101678.84
2022-12-26T17:13:09.947Z,101691.44
2022-12-26T17:18:45.309Z,101690.41
2022-12-26T17:24:20.633Z,101698.03
2022-12-26T17:29:55.386Z,101700.88
2022-12-26T17:35:06.445Z,101707.28
2022-12-26T17:40:15.012Z,101715.63
2022-12-26T17:45:20.943Z,101718.31
2022-12-26T17:50:35.652Z,101721.34
2022-12-26T17:55:38.487Z,101734.84
2022-12-26T18:00:42.245Z,101733.06
2022-12-26T18:05:46.584Z,101737.31
2022-12-26T18:10:49.354Z,101724.03
2022-12-26T18:15:52.898Z,101731.63
2022-12-26T18:20:55.706Z,101738.22
2022-12-26T18:26:01.235Z,101736.56
2022-12-26T18:31:04.187Z,101750.06
2022-12-26T18:36:07.908Z,101729.81
2022-12-26T18:41:15.509Z,101747.91
2022-12-26T18:46:23.750Z,101746.84
2022-12-26T18:51:28.248Z,101751.06
2022-12-26T18:56:30.990Z,101736.91
2022-12-26T19:01:33.777Z,101750.19
2022-12-26T19:06:36.494Z,101746.09
2022-12-26T19:11:39.985Z,101770.16
2022-12-26T19:16:42.682Z,101723.63
2022-12-26T19:21:45.548Z,101760.91
2022-12-26T19:26:48.135Z,101762.97
2022-12-26T19:31:50.897Z,101779.59
2022-12-26T19:36:53.567Z,101793.03
2022-12-26T19:41:56.199Z,101774.94
2022-12-26T19:47:10.952Z,101781.63
2022-12-26T19:52:15.498Z,101769.63
2022-12-26T19:57:18.342Z,101776.00
2022-12-26T20:02:21.267Z,101777.69
2022-12-26T20:07:24.122Z,101778.00
2022-12-26T20:12:26.897Z,101780.81
2022-12-26T20:17:29.551Z,101799.25
2022-12-26T20:22:32.295Z,101788.59
2022-12-26T20:27:35.092Z,101798.84
2022-12-26T20:32:37.761Z,101793.53
2022-12-26T20:37:40.512Z,101781.47
2022-12-26T20:42:43.213Z,101785.28
2022-12-26T20:47:46.011Z,101792.34
2022-12-26T20:52:48.729Z,101798.00
2022-12-26T20:57:51.385Z,101792.28
2022-12-26T21:02:54.212Z,101761.34
2022-12-26T21:07:57.091Z,101802.50
2022-12-26T21:12:59.758Z,101808.53
2022-12-26T21:18:03.301Z,101806.38
2022-12-26T21:23:06.139Z,101814.44
2022-12-26T21:28:08.768Z,101817.34
2022-12-26T21:33:11.430Z,101807.78
2022-12-26T21:38:14.229Z,101818.50
2022-12-26T21:43:17.388Z,101819.88
2022-12-26T21:48:20.130Z,101818.50
2022-12-26T21:53:22.849Z,101836.13
2022-12-26T21:58:25.536Z,101831.78
2022-12-26T22:03:46.629Z,101830.84
2022-12-26T22:08:49.384Z,101843.31
2022-12-26T22:13:52.016Z,101834.03
2022-12-26T22:18:56.712Z,101844.53
2022-12-26T22:24:00.035Z,101857.97
2022-12-26T22:29:02.756Z,101851.66
2022-12-26T22:34:07.692Z,101873.03
2022-12-26T22:39:13.825Z,101872.81
2022-12-26T22:44:16.482Z,101869.31
2022-12-26T22:49:19.275Z,101885.53
2022-12-26T22:54:21.973Z,101890.06
2022-12-26T22:59:58.120Z,101871.88
2022-12-26T23:04:47.695Z,101884.13
2022-12-26T23:09:50.587Z,101891.72
2022-12-26T23:14:53.408Z,101893.22
2022-12-26T23:20:14.667Z,101903.19
2022-12-26T23:25:17.506Z,101906.06
2022-12-26T23:30:20.321Z,101907.63
2022-12-26T23:35:23.940Z,101904.28
2022-12-26T23:40:26.669Z,101910.91
2022-12-26T23:45:29.839Z,101913.06
2022-12-26T23:50:32.401Z,101921.16
2022-12-26T23:55:35.231Z,101911.56
